sensor_id;sensor_type;location;lat;lon;timestamp;P1;durP1;ratioP1;P2;durP2;ratioP2
29908;SDS011;36247;51.952;6.146;2022-12-07T00:01:15;22.83;;;14.98;;
29908;SDS011;36247;51.952;6.146;2022-12-07T00:03:52;22.88;;;13.43;;
29908;SDS011;36247;51.952;6.146;2022-12-07T00:06:22;25.35;;;13.77;;
29908;SDS011;36247;51.952;6.146;2022-12-07T00:08:48;21.83;;;13.45;;
29908;SDS011;36247;51.952;6.146;2022-12-07T00:11:14;21.15;;;12.32;;
29908;SDS011;36247;51.952;6.146;2022-12-07T00:13:42;23.30;;;13.13;;
29908;SDS011;36247;51.952;6.146;2022-12-07T00:16:09;21.98;;;11.32;;
29908;SDS011;36247;51.952;6.146;2022-12-07T00:18:37;20.77;;;12.43;;
29908;SDS011;36247;51.952;6.146;2022-12-07T00:21:04;16.95;;;10.25;;
29908;SDS011;36247;51.952;6.146;2022-12-07T00:23:34;21.80;;;10.38;;
29908;SDS011;36247;51.952;6.146;2022-12-07T00:26:07;16.30;;;10.80;;
29908;SDS011;36247;51.952;6.146;2022-12-07T00:28:34;19.60;;;10.57;;
29908;SDS011;36247;51.952;6.146;2022-12-07T00:31:10;16.30;;;10.55;;
29908;SDS011;36247;51.952;6.146;2022-12-07T00:33:37;17.88;;;10.43;;
29908;SDS011;36247;51.952;6.146;2022-12-07T00:36:07;19.27;;;11.57;;
29908;SDS011;36247;51.952;6.146;2022-12-07T00:38:35;18.15;;;10.20;;
29908;SDS011;36247;51.952;6.146;2022-12-07T00:41:03;16.67;;;9.40;;
29908;SDS011;36247;51.952;6.146;2022-12-07T00:43:30;14.98;;;9.13;;
29908;SDS011;36247;51.952;6.146;2022-12-07T00:48:16;12.40;;;8.75;;
29908;SDS011;36247;51.952;6.146;2022-12-07T00:50:42;14.73;;;8.63;;
29908;SDS011;36247;51.952;6.146;2022-12-07T00:53:08;14.05;;;8.05;;
29908;SDS011;36247;51.952;6.146;2022-12-07T00:55:33;13.68;;;9.00;;
29908;SDS011;36247;51.952;6.146;2022-12-07T00:57:59;13.95;;;8.15;;
29908;SDS011;36247;51.952;6.146;2022-12-07T01:00:27;11.23;;;8.57;;
29908;SDS011;36247;51.952;6.146;2022-12-07T01:02:53;12.60;;;7.85;;
29908;SDS011;36247;51.952;6.146;2022-12-07T01:05:18;18.67;;;9.55;;
29908;SDS011;36247;51.952;6.146;2022-12-07T01:07:44;17.23;;;8.98;;
29908;SDS011;36247;51.952;6.146;2022-12-07T01:10:11;14.15;;;10.18;;
29908;SDS011;36247;51.952;6.146;2022-12-07T01:12:36;17.83;;;9.68;;
29908;SDS011;36247;51.952;6.146;2022-12-07T01:15:02;14.57;;;9.35;;
29908;SDS011;36247;51.952;6.146;2022-12-07T01:17:27;15.27;;;9.70;;
29908;SDS011;36247;51.952;6.146;2022-12-07T01:19:53;21.40;;;10.70;;
29908;SDS011;36247;51.952;6.146;2022-12-07T01:22:19;18.02;;;11.00;;
29908;SDS011;36247;51.952;6.146;2022-12-07T01:24:44;16.50;;;9.60;;
29908;SDS011;36247;51.952;6.146;2022-12-07T01:27:12;18.08;;;10.57;;
29908;SDS011;36247;51.952;6.146;2022-12-07T01:29:38;22.10;;;10.38;;
29908;SDS011;36247;51.952;6.146;2022-12-07T01:32:03;21.27;;;10.63;;
29908;SDS011;36247;51.952;6.146;2022-12-07T01:34:29;16.08;;;10.23;;
29908;SDS011;36247;51.952;6.146;2022-12-07T01:36:54;21.05;;;10.55;;
29908;SDS011;36247;51.952;6.146;2022-12-07T01:39:20;25.40;;;10.80;;
29908;SDS011;36247;51.952;6.146;2022-12-07T01:41:46;19.98;;;12.18;;
29908;SDS011;36247;51.952;6.146;2022-12-07T01:46:46;21.30;;;11.38;;
29908;SDS011;36247;51.952;6.146;2022-12-07T01:49:15;17.55;;;11.05;;
29908;SDS011;36247;51.952;6.146;2022-12-07T01:51:59;20.30;;;11.68;;
29908;SDS011;36247;51.952;6.146;2022-12-07T01:54:29;18.13;;;10.65;;
29908;SDS011;36247;51.952;6.146;2022-12-07T01:56:56;18.15;;;11.27;;
29908;SDS011;36247;51.952;6.146;2022-12-07T01:59:23;21.90;;;12.55;;
29908;SDS011;36247;51.952;6.146;2022-12-07T02:01:51;16.73;;;10.88;;
29908;SDS011;36247;51.952;6.146;2022-12-07T02:04:18;19.23;;;8.95;;
29908;SDS011;36247;51.952;6.146;2022-12-07T02:06:44;17.60;;;11.98;;
29908;SDS011;36247;51.952;6.146;2022-12-07T02:09:15;19.38;;;11.70;;
29908;SDS011;36247;51.952;6.146;2022-12-07T02:11:40;20.25;;;12.07;;
29908;SDS011;36247;51.952;6.146;2022-12-07T02:14:06;31.92;;;13.45;;
29908;SDS011;36247;51.952;6.146;2022-12-07T02:21:32;20.13;;;11.35;;
29908;SDS011;36247;51.952;6.146;2022-12-07T02:29:57;14.82;;;10.82;;
29908;SDS011;36247;51.952;6.146;2022-12-07T02:32:42;19.83;;;12.90;;
29908;SDS011;36247;51.952;6.146;2022-12-07T02:40:43;18.30;;;12.68;;
29908;SDS011;36247;51.952;6.146;2022-12-07T02:45:55;23.38;;;11.88;;
29908;SDS011;36247;51.952;6.146;2022-12-07T02:48:24;18.88;;;12.20;;
29908;SDS011;36247;51.952;6.146;2022-12-07T02:50:52;17.25;;;11.05;;
29908;SDS011;36247;51.952;6.146;2022-12-07T02:53:28;20.75;;;11.50;;
29908;SDS011;36247;51.952;6.146;2022-12-07T02:55:57;18.55;;;11.23;;
29908;SDS011;36247;51.952;6.146;2022-12-07T02:58:32;17.90;;;10.70;;
29908;SDS011;36247;51.952;6.146;2022-12-07T03:04:27;17.85;;;9.68;;
29908;SDS011;36247;51.952;6.146;2022-12-07T03:12:28;15.15;;;9.35;;
29908;SDS011;36247;51.952;6.146;2022-12-07T03:15:07;13.63;;;9.13;;
29908;SDS011;36247;51.952;6.146;2022-12-07T03:17:40;21.35;;;10.43;;
29908;SDS011;36247;51.952;6.146;2022-12-07T03:20:10;18.83;;;10.27;;
29908;SDS011;36247;51.952;6.146;2022-12-07T03:22:41;17.27;;;10.80;;
29908;SDS011;36247;51.952;6.146;2022-12-07T03:25:10;18.65;;;10.07;;
29908;SDS011;36247;51.952;6.146;2022-12-07T03:30:19;13.90;;;10.07;;
29908;SDS011;36247;51.952;6.146;2022-12-07T03:32:52;22.08;;;11.40;;
29908;SDS011;36247;51.952;6.146;2022-12-07T03:35:23;19.95;;;10.90;;
29908;SDS011;36247;51.952;6.146;2022-12-07T03:37:56;15.40;;;10.05;;
29908;SDS011;36247;51.952;6.146;2022-12-07T03:42:58;14.82;;;10.13;;
29908;SDS011;36247;51.952;6.146;2022-12-07T03:45:38;13.52;;;8.57;;
29908;SDS011;36247;51.952;6.146;2022-12-07T03:50:40;14.35;;;9.85;;
29908;SDS011;36247;51.952;6.146;2022-12-07T03:53:14;16.60;;;9.35;;
29908;SDS011;36247;51.952;6.146;2022-12-07T03:56:04;17.40;;;10.02;;
29908;SDS011;36247;51.952;6.146;2022-12-07T03:58:31;13.50;;;9.07;;
29908;SDS011;36247;51.952;6.146;2022-12-07T04:00:59;15.65;;;9.95;;
29908;SDS011;36247;51.952;6.146;2022-12-07T04:03:24;15.00;;;9.75;;
29908;SDS011;36247;51.952;6.146;2022-12-07T04:05:50;15.25;;;8.48;;
29908;SDS011;36247;51.952;6.146;2022-12-07T04:08:16;16.73;;;8.32;;
29908;SDS011;36247;51.952;6.146;2022-12-07T04:10:41;18.35;;;9.82;;
29908;SDS011;36247;51.952;6.146;2022-12-07T04:13:07;15.57;;;9.15;;
29908;SDS011;36247;51.952;6.146;2022-12-07T04:15:32;17.65;;;9.27;;
29908;SDS011;36247;51.952;6.146;2022-12-07T04:17:58;18.02;;;8.85;;
29908;SDS011;36247;51.952;6.146;2022-12-07T04:20:23;14.27;;;8.52;;
29908;SDS011;36247;51.952;6.146;2022-12-07T04:22:49;17.60;;;8.93;;
29908;SDS011;36247;51.952;6.146;2022-12-07T04:25:14;16.10;;;8.93;;
29908;SDS011;36247;51.952;6.146;2022-12-07T04:27:40;13.40;;;8.50;;
29908;SDS011;36247;51.952;6.146;2022-12-07T04:30:05;14.07;;;8.23;;
29908;SDS011;36247;51.952;6.146;2022-12-07T04:32:31;15.77;;;8.70;;
29908;SDS011;36247;51.952;6.146;2022-12-07T04:34:57;12.80;;;8.77;;
29908;SDS011;36247;51.952;6.146;2022-12-07T04:37:23;16.52;;;8.57;;
29908;SDS011;36247;51.952;6.146;2022-12-07T04:39:49;18.80;;;9.00;;
29908;SDS011;36247;51.952;6.146;2022-12-07T04:42:14;19.33;;;9.32;;
29908;SDS011;36247;51.952;6.146;2022-12-07T04:44:39;17.27;;;8.32;;
29908;SDS011;36247;51.952;6.146;2022-12-07T04:47:05;15.20;;;8.13;;
29908;SDS011;36247;51.952;6.146;2022-12-07T04:49:30;20.45;;;8.95;;
29908;SDS011;36247;51.952;6.146;2022-12-07T04:51:56;11.35;;;7.72;;
29908;SDS011;36247;51.952;6.146;2022-12-07T04:54:22;16.23;;;8.00;;
29908;SDS011;36247;51.952;6.146;2022-12-07T04:56:47;17.30;;;8.68;;
29908;SDS011;36247;51.952;6.146;2022-12-07T04:59:14;22.20;;;8.40;;
29908;SDS011;36247;51.952;6.146;2022-12-07T05:01:41;16.80;;;8.65;;
29908;SDS011;36247;51.952;6.146;2022-12-07T05:04:07;14.13;;;8.48;;
29908;SDS011;36247;51.952;6.146;2022-12-07T05:06:32;15.30;;;8.05;;
29908;SDS011;36247;51.952;6.146;2022-12-07T05:08:58;13.85;;;8.02;;
29908;SDS011;36247;51.952;6.146;2022-12-07T05:11:24;16.38;;;7.20;;
29908;SDS011;36247;51.952;6.146;2022-12-07T05:14:12;14.40;;;8.05;;
29908;SDS011;36247;51.952;6.146;2022-12-07T05:16:43;13.10;;;7.50;;
29908;SDS011;36247;51.952;6.146;2022-12-07T05:19:09;15.48;;;7.45;;
29908;SDS011;36247;51.952;6.146;2022-12-07T05:21:35;21.75;;;8.73;;
29908;SDS011;36247;51.952;6.146;2022-12-07T05:24:01;15.68;;;8.07;;
29908;SDS011;36247;51.952;6.146;2022-12-07T05:26:27;16.17;;;7.25;;
29908;SDS011;36247;51.952;6.146;2022-12-07T05:28:53;10.55;;;6.80;;
29908;SDS011;36247;51.952;6.146;2022-12-07T05:31:19;11.38;;;6.50;;
29908;SDS011;36247;51.952;6.146;2022-12-07T05:33:45;10.75;;;5.93;;
29908;SDS011;36247;51.952;6.146;2022-12-07T05:36:11;10.50;;;6.72;;
29908;SDS011;36247;51.952;6.146;2022-12-07T05:38:36;14.30;;;6.63;;
29908;SDS011;36247;51.952;6.146;2022-12-07T05:41:02;16.48;;;6.78;;
29908;SDS011;36247;51.952;6.146;2022-12-07T05:43:29;15.70;;;7.93;;
29908;SDS011;36247;51.952;6.146;2022-12-07T05:45:55;11.85;;;7.40;;
29908;SDS011;36247;51.952;6.146;2022-12-07T05:48:21;16.38;;;6.93;;
29908;SDS011;36247;51.952;6.146;2022-12-07T05:50:47;15.35;;;7.38;;
29908;SDS011;36247;51.952;6.146;2022-12-07T05:53:14;12.00;;;6.97;;
29908;SDS011;36247;51.952;6.146;2022-12-07T05:55:39;14.02;;;6.13;;
29908;SDS011;36247;51.952;6.146;2022-12-07T05:58:05;11.43;;;6.95;;
29908;SDS011;36247;51.952;6.146;2022-12-07T06:00:49;13.48;;;7.70;;
29908;SDS011;36247;51.952;6.146;2022-12-07T06:03:14;14.30;;;7.63;;
29908;SDS011;36247;51.952;6.146;2022-12-07T06:05:40;12.73;;;8.27;;
29908;SDS011;36247;51.952;6.146;2022-12-07T06:08:06;12.45;;;6.53;;
29908;SDS011;36247;51.952;6.146;2022-12-07T06:12:52;10.32;;;7.20;;
29908;SDS011;36247;51.952;6.146;2022-12-07T06:15:17;13.57;;;6.70;;
29908;SDS011;36247;51.952;6.146;2022-12-07T06:17:43;11.18;;;5.97;;
29908;SDS011;36247;51.952;6.146;2022-12-07T06:20:08;11.45;;;5.93;;
29908;SDS011;36247;51.952;6.146;2022-12-07T06:22:34;5.97;;;4.57;;
29908;SDS011;36247;51.952;6.146;2022-12-07T06:24:59;16.60;;;6.05;;
29908;SDS011;36247;51.952;6.146;2022-12-07T06:27:25;11.95;;;5.85;;
29908;SDS011;36247;51.952;6.146;2022-12-07T06:29:50;13.15;;;5.43;;
29908;SDS011;36247;51.952;6.146;2022-12-07T06:32:15;13.73;;;5.93;;
29908;SDS011;36247;51.952;6.146;2022-12-07T06:34:41;12.32;;;6.10;;
29908;SDS011;36247;51.952;6.146;2022-12-07T06:37:07;10.23;;;5.15;;
29908;SDS011;36247;51.952;6.146;2022-12-07T06:39:32;14.00;;;6.18;;
29908;SDS011;36247;51.952;6.146;2022-12-07T06:41:58;11.25;;;5.97;;
29908;SDS011;36247;51.952;6.146;2022-12-07T06:44:24;11.80;;;6.13;;
29908;SDS011;36247;51.952;6.146;2022-12-07T06:46:50;10.52;;;5.40;;
29908;SDS011;36247;51.952;6.146;2022-12-07T06:49:16;11.75;;;5.45;;
29908;SDS011;36247;51.952;6.146;2022-12-07T06:51:42;13.02;;;5.78;;
29908;SDS011;36247;51.952;6.146;2022-12-07T06:54:08;12.07;;;5.50;;
29908;SDS011;36247;51.952;6.146;2022-12-07T06:56:35;14.27;;;6.22;;
29908;SDS011;36247;51.952;6.146;2022-12-07T06:59:01;12.65;;;5.68;;
29908;SDS011;36247;51.952;6.146;2022-12-07T07:01:26;17.67;;;6.85;;
29908;SDS011;36247;51.952;6.146;2022-12-07T07:03:51;10.55;;;6.85;;
29908;SDS011;36247;51.952;6.146;2022-12-07T07:06:17;15.02;;;5.72;;
29908;SDS011;36247;51.952;6.146;2022-12-07T07:08:43;18.70;;;6.78;;
29908;SDS011;36247;51.952;6.146;2022-12-07T07:11:08;20.60;;;7.82;;
29908;SDS011;36247;51.952;6.146;2022-12-07T07:13:34;10.55;;;6.03;;
29908;SDS011;36247;51.952;6.146;2022-12-07T07:16:00;11.68;;;6.60;;
29908;SDS011;36247;51.952;6.146;2022-12-07T07:18:26;25.30;;;9.13;;
29908;SDS011;36247;51.952;6.146;2022-12-07T07:20:51;13.77;;;6.38;;
29908;SDS011;36247;51.952;6.146;2022-12-07T07:23:17;16.58;;;5.90;;
29908;SDS011;36247;51.952;6.146;2022-12-07T07:25:43;14.02;;;6.10;;
29908;SDS011;36247;51.952;6.146;2022-12-07T07:28:09;14.77;;;5.78;;
29908;SDS011;36247;51.952;6.146;2022-12-07T07:30:35;15.18;;;6.68;;
29908;SDS011;36247;51.952;6.146;2022-12-07T07:33:01;15.07;;;5.97;;
29908;SDS011;36247;51.952;6.146;2022-12-07T07:35:29;17.77;;;6.55;;
29908;SDS011;36247;51.952;6.146;2022-12-07T07:37:56;14.23;;;6.65;;
29908;SDS011;36247;51.952;6.146;2022-12-07T07:40:21;11.90;;;6.07;;
29908;SDS011;36247;51.952;6.146;2022-12-07T07:42:48;11.18;;;5.97;;
29908;SDS011;36247;51.952;6.146;2022-12-07T07:45:16;9.80;;;5.45;;
29908;SDS011;36247;51.952;6.146;2022-12-07T07:47:43;9.40;;;5.63;;
29908;SDS011;36247;51.952;6.146;2022-12-07T07:50:08;10.70;;;5.45;;
29908;SDS011;36247;51.952;6.146;2022-12-07T07:52:34;8.48;;;5.68;;
29908;SDS011;36247;51.952;6.146;2022-12-07T07:55:00;11.05;;;5.78;;
29908;SDS011;36247;51.952;6.146;2022-12-07T07:57:26;12.38;;;5.60;;
29908;SDS011;36247;51.952;6.146;2022-12-07T07:59:52;11.10;;;5.53;;
29908;SDS011;36247;51.952;6.146;2022-12-07T08:02:18;12.88;;;5.32;;
29908;SDS011;36247;51.952;6.146;2022-12-07T08:04:45;15.45;;;5.03;;
29908;SDS011;36247;51.952;6.146;2022-12-07T08:07:11;7.90;;;4.43;;
29908;SDS011;36247;51.952;6.146;2022-12-07T08:09:37;11.35;;;4.80;;
29908;SDS011;36247;51.952;6.146;2022-12-07T08:12:03;12.27;;;4.63;;
29908;SDS011;36247;51.952;6.146;2022-12-07T08:14:30;12.75;;;4.55;;
29908;SDS011;36247;51.952;6.146;2022-12-07T08:16:56;10.13;;;5.25;;
29908;SDS011;36247;51.952;6.146;2022-12-07T08:19:22;10.57;;;5.30;;
29908;SDS011;36247;51.952;6.146;2022-12-07T08:21:47;10.77;;;6.70;;
29908;SDS011;36247;51.952;6.146;2022-12-07T08:24:13;16.88;;;5.72;;
29908;SDS011;36247;51.952;6.146;2022-12-07T08:26:39;16.65;;;5.35;;
29908;SDS011;36247;51.952;6.146;2022-12-07T08:29:04;15.00;;;5.10;;
29908;SDS011;36247;51.952;6.146;2022-12-07T08:31:30;7.18;;;4.35;;
29908;SDS011;36247;51.952;6.146;2022-12-07T08:33:56;13.95;;;5.53;;
29908;SDS011;36247;51.952;6.146;2022-12-07T08:36:22;12.27;;;5.50;;
29908;SDS011;36247;51.952;6.146;2022-12-07T08:38:47;9.70;;;5.72;;
29908;SDS011;36247;51.952;6.146;2022-12-07T08:41:13;10.82;;;5.65;;
29908;SDS011;36247;51.952;6.146;2022-12-07T08:43:39;12.38;;;5.40;;
29908;SDS011;36247;51.952;6.146;2022-12-07T08:46:17;12.95;;;4.90;;
29908;SDS011;36247;51.952;6.146;2022-12-07T08:48:48;8.68;;;4.25;;
29908;SDS011;36247;51.952;6.146;2022-12-07T08:51:21;9.32;;;4.95;;
29908;SDS011;36247;51.952;6.146;2022-12-07T08:53:48;10.23;;;4.65;;
29908;SDS011;36247;51.952;6.146;2022-12-07T08:56:14;8.50;;;5.25;;
29908;SDS011;36247;51.952;6.146;2022-12-07T08:58:40;12.85;;;5.35;;
29908;SDS011;36247;51.952;6.146;2022-12-07T09:01:06;23.30;;;4.97;;
29908;SDS011;36247;51.952;6.146;2022-12-07T09:03:32;5.03;;;4.32;;
29908;SDS011;36247;51.952;6.146;2022-12-07T09:05:58;8.23;;;4.47;;
29908;SDS011;36247;51.952;6.146;2022-12-07T09:08:26;8.80;;;4.20;;
29908;SDS011;36247;51.952;6.146;2022-12-07T09:10:55;14.40;;;4.75;;
29908;SDS011;36247;51.952;6.146;2022-12-07T09:13:21;16.80;;;4.55;;
29908;SDS011;36247;51.952;6.146;2022-12-07T09:15:46;10.00;;;4.90;;
29908;SDS011;36247;51.952;6.146;2022-12-07T09:18:12;8.40;;;4.70;;
29908;SDS011;36247;51.952;6.146;2022-12-07T09:20:37;7.60;;;4.43;;
29908;SDS011;36247;51.952;6.146;2022-12-07T09:23:05;8.85;;;4.10;;
29908;SDS011;36247;51.952;6.146;2022-12-07T09:25:31;13.50;;;5.38;;
29908;SDS011;36247;51.952;6.146;2022-12-07T09:27:57;11.65;;;4.13;;
29908;SDS011;36247;51.952;6.146;2022-12-07T09:30:22;12.07;;;4.60;;
29908;SDS011;36247;51.952;6.146;2022-12-07T09:32:48;9.98;;;4.20;;
29908;SDS011;36247;51.952;6.146;2022-12-07T09:35:14;11.95;;;4.50;;
29908;SDS011;36247;51.952;6.146;2022-12-07T09:37:39;14.60;;;5.50;;
29908;SDS011;36247;51.952;6.146;2022-12-07T09:40:05;10.20;;;5.22;;
29908;SDS011;36247;51.952;6.146;2022-12-07T09:42:34;11.48;;;5.85;;
29908;SDS011;36247;51.952;6.146;2022-12-07T09:45:02;12.70;;;5.03;;
29908;SDS011;36247;51.952;6.146;2022-12-07T09:47:30;13.48;;;4.93;;
29908;SDS011;36247;51.952;6.146;2022-12-07T09:50:12;19.42;;;5.93;;
29908;SDS011;36247;51.952;6.146;2022-12-07T09:52:41;11.02;;;4.60;;
29908;SDS011;36247;51.952;6.146;2022-12-07T09:55:13;12.32;;;4.05;;
29908;SDS011;36247;51.952;6.146;2022-12-07T09:57:49;14.52;;;4.18;;
29908;SDS011;36247;51.952;6.146;2022-12-07T10:00:17;13.40;;;4.30;;
29908;SDS011;36247;51.952;6.146;2022-12-07T10:02:46;7.65;;;3.55;;
29908;SDS011;36247;51.952;6.146;2022-12-07T10:05:17;6.85;;;3.33;;
29908;SDS011;36247;51.952;6.146;2022-12-07T10:07:47;12.35;;;3.58;;
29908;SDS011;36247;51.952;6.146;2022-12-07T10:10:13;6.53;;;3.33;;
29908;SDS011;36247;51.952;6.146;2022-12-07T10:15:23;6.88;;;3.53;;
29908;SDS011;36247;51.952;6.146;2022-12-07T10:18:14;12.10;;;3.17;;
29908;SDS011;36247;51.952;6.146;2022-12-07T10:20:44;9.77;;;3.28;;
29908;SDS011;36247;51.952;6.146;2022-12-07T10:23:20;9.15;;;3.05;;
29908;SDS011;36247;51.952;6.146;2022-12-07T10:25:45;12.38;;;3.83;;
29908;SDS011;36247;51.952;6.146;2022-12-07T10:28:17;8.35;;;3.20;;
29908;SDS011;36247;51.952;6.146;2022-12-07T10:36:19;5.13;;;3.10;;
29908;SDS011;36247;51.952;6.146;2022-12-07T10:41:29;10.82;;;3.33;;
29908;SDS011;36247;51.952;6.146;2022-12-07T10:43:56;12.55;;;4.30;;
29908;SDS011;36247;51.952;6.146;2022-12-07T11:00:25;6.90;;;2.80;;
29908;SDS011;36247;51.952;6.146;2022-12-07T11:03:27;9.13;;;3.47;;
29908;SDS011;36247;51.952;6.146;2022-12-07T11:11:38;7.88;;;2.80;;
29908;SDS011;36247;51.952;6.146;2022-12-07T11:16:58;12.95;;;3.63;;
29908;SDS011;36247;51.952;6.146;2022-12-07T11:19:39;6.20;;;3.15;;
29908;SDS011;36247;51.952;6.146;2022-12-07T11:22:47;9.55;;;5.03;;
29908;SDS011;36247;51.952;6.146;2022-12-07T11:26:11;9.07;;;3.58;;
29908;SDS011;36247;51.952;6.146;2022-12-07T11:28:36;10.45;;;3.33;;
29908;SDS011;36247;51.952;6.146;2022-12-07T11:37:03;6.28;;;3.08;;
29908;SDS011;36247;51.952;6.146;2022-12-07T11:39:50;9.43;;;3.05;;
29908;SDS011;36247;51.952;6.146;2022-12-07T11:42:22;11.70;;;3.60;;
29908;SDS011;36247;51.952;6.146;2022-12-07T11:47:59;8.00;;;2.67;;
29908;SDS011;36247;51.952;6.146;2022-12-07T11:50:36;6.28;;;3.03;;
29908;SDS011;36247;51.952;6.146;2022-12-07T11:55:48;8.98;;;2.97;;
29908;SDS011;36247;51.952;6.146;2022-12-07T12:01:06;4.28;;;2.47;;
29908;SDS011;36247;51.952;6.146;2022-12-07T12:03:47;6.40;;;2.58;;
29908;SDS011;36247;51.952;6.146;2022-12-07T12:06:14;6.22;;;2.55;;
29908;SDS011;36247;51.952;6.146;2022-12-07T12:08:46;9.40;;;3.70;;
29908;SDS011;36247;51.952;6.146;2022-12-07T12:19:37;6.68;;;2.63;;
29908;SDS011;36247;51.952;6.146;2022-12-07T12:22:09;7.13;;;2.60;;
29908;SDS011;36247;51.952;6.146;2022-12-07T12:24:39;6.75;;;2.75;;
29908;SDS011;36247;51.952;6.146;2022-12-07T12:27:07;9.02;;;2.85;;
29908;SDS011;36247;51.952;6.146;2022-12-07T12:29:40;5.10;;;2.33;;
29908;SDS011;36247;51.952;6.146;2022-12-07T12:32:17;8.95;;;2.75;;
29908;SDS011;36247;51.952;6.146;2022-12-07T12:35:03;8.70;;;2.72;;
29908;SDS011;36247;51.952;6.146;2022-12-07T12:37:48;11.00;;;2.35;;
29908;SDS011;36247;51.952;6.146;2022-12-07T12:45:27;11.02;;;3.17;;
29908;SDS011;36247;51.952;6.146;2022-12-07T12:47:58;8.85;;;3.35;;
29908;SDS011;36247;51.952;6.146;2022-12-07T12:50:43;8.35;;;2.50;;
29908;SDS011;36247;51.952;6.146;2022-12-07T12:55:50;8.32;;;2.65;;
29908;SDS011;36247;51.952;6.146;2022-12-07T12:58:33;9.55;;;2.45;;
29908;SDS011;36247;51.952;6.146;2022-12-07T13:04:14;9.55;;;3.10;;
29908;SDS011;36247;51.952;6.146;2022-12-07T13:06:44;18.67;;;3.33;;
29908;SDS011;36247;51.952;6.146;2022-12-07T13:09:20;7.45;;;2.63;;
29908;SDS011;36247;51.952;6.146;2022-12-07T13:11:48;9.23;;;3.03;;
29908;SDS011;36247;51.952;6.146;2022-12-07T13:20:02;4.90;;;2.22;;
29908;SDS011;36247;51.952;6.146;2022-12-07T13:27:31;11.90;;;4.40;;
29908;SDS011;36247;51.952;6.146;2022-12-07T13:29:57;6.55;;;2.53;;
29908;SDS011;36247;51.952;6.146;2022-12-07T13:32:24;5.25;;;2.35;;
29908;SDS011;36247;51.952;6.146;2022-12-07T13:34:54;10.00;;;2.40;;
29908;SDS011;36247;51.952;6.146;2022-12-07T13:37:27;6.88;;;2.17;;
29908;SDS011;36247;51.952;6.146;2022-12-07T13:40:12;3.50;;;2.17;;
29908;SDS011;36247;51.952;6.146;2022-12-07T13:42:45;10.70;;;3.78;;
29908;SDS011;36247;51.952;6.146;2022-12-07T13:45:21;11.25;;;4.47;;
29908;SDS011;36247;51.952;6.146;2022-12-07T13:48:20;12.25;;;4.68;;
29908;SDS011;36247;51.952;6.146;2022-12-07T13:51:01;12.75;;;4.10;;
29908;SDS011;36247;51.952;6.146;2022-12-07T13:53:27;13.75;;;5.03;;
29908;SDS011;36247;51.952;6.146;2022-12-07T13:55:58;11.13;;;3.83;;
29908;SDS011;36247;51.952;6.146;2022-12-07T13:58:26;11.15;;;4.80;;
29908;SDS011;36247;51.952;6.146;2022-12-07T14:00:55;11.18;;;3.75;;
29908;SDS011;36247;51.952;6.146;2022-12-07T14:03:28;10.57;;;3.40;;
29908;SDS011;36247;51.952;6.146;2022-12-07T14:06:03;8.90;;;3.38;;
29908;SDS011;36247;51.952;6.146;2022-12-07T14:08:29;13.15;;;3.92;;
29908;SDS011;36247;51.952;6.146;2022-12-07T14:10:56;7.15;;;2.88;;
29908;SDS011;36247;51.952;6.146;2022-12-07T14:16:29;9.88;;;3.53;;
29908;SDS011;36247;51.952;6.146;2022-12-07T14:19:05;6.65;;;2.83;;
29908;SDS011;36247;51.952;6.146;2022-12-07T14:22:05;12.75;;;2.90;;
29908;SDS011;36247;51.952;6.146;2022-12-07T14:24:40;4.85;;;2.33;;
29908;SDS011;36247;51.952;6.146;2022-12-07T14:27:15;4.47;;;1.83;;
29908;SDS011;36247;51.952;6.146;2022-12-07T14:29:46;4.43;;;1.80;;
29908;SDS011;36247;51.952;6.146;2022-12-07T14:32:17;6.38;;;2.30;;
29908;SDS011;36247;51.952;6.146;2022-12-07T14:34:56;7.65;;;1.83;;
29908;SDS011;36247;51.952;6.146;2022-12-07T14:37:39;3.72;;;1.52;;
29908;SDS011;36247;51.952;6.146;2022-12-07T14:40:07;8.02;;;2.05;;
29908;SDS011;36247;51.952;6.146;2022-12-07T14:42:37;3.53;;;1.90;;
29908;SDS011;36247;51.952;6.146;2022-12-07T14:45:03;8.25;;;1.92;;
29908;SDS011;36247;51.952;6.146;2022-12-07T14:47:29;6.32;;;1.85;;
29908;SDS011;36247;51.952;6.146;2022-12-07T14:49:54;6.68;;;2.42;;
29908;SDS011;36247;51.952;6.146;2022-12-07T14:52:20;9.23;;;2.40;;
29908;SDS011;36247;51.952;6.146;2022-12-07T14:54:53;8.73;;;2.67;;
29908;SDS011;36247;51.952;6.146;2022-12-07T14:57:19;7.50;;;3.05;;
29908;SDS011;36247;51.952;6.146;2022-12-07T14:59:44;6.15;;;2.72;;
29908;SDS011;36247;51.952;6.146;2022-12-07T15:02:11;4.80;;;2.35;;
29908;SDS011;36247;51.952;6.146;2022-12-07T15:04:39;7.78;;;2.08;;
29908;SDS011;36247;51.952;6.146;2022-12-07T15:07:05;11.02;;;2.78;;
29908;SDS011;36247;51.952;6.146;2022-12-07T15:09:43;5.13;;;2.08;;
29908;SDS011;36247;51.952;6.146;2022-12-07T15:12:09;7.68;;;2.30;;
29908;SDS011;36247;51.952;6.146;2022-12-07T15:14:34;7.25;;;2.28;;
29908;SDS011;36247;51.952;6.146;2022-12-07T15:17:00;4.72;;;2.20;;
29908;SDS011;36247;51.952;6.146;2022-12-07T15:19:25;5.20;;;1.95;;
29908;SDS011;36247;51.952;6.146;2022-12-07T15:21:52;6.88;;;2.45;;
29908;SDS011;36247;51.952;6.146;2022-12-07T15:24:18;5.72;;;2.65;;
29908;SDS011;36247;51.952;6.146;2022-12-07T15:26:44;3.42;;;2.40;;
29908;SDS011;36247;51.952;6.146;2022-12-07T15:29:10;3.13;;;1.90;;
29908;SDS011;36247;51.952;6.146;2022-12-07T15:31:36;2.63;;;1.95;;
29908;SDS011;36247;51.952;6.146;2022-12-07T15:34:02;6.65;;;2.10;;
29908;SDS011;36247;51.952;6.146;2022-12-07T15:36:29;4.63;;;2.58;;
29908;SDS011;36247;51.952;6.146;2022-12-07T15:38:56;7.88;;;1.98;;
29908;SDS011;36247;51.952;6.146;2022-12-07T15:41:21;3.55;;;2.38;;
29908;SDS011;36247;51.952;6.146;2022-12-07T15:43:48;2.50;;;1.95;;
29908;SDS011;36247;51.952;6.146;2022-12-07T15:46:33;6.78;;;2.47;;
29908;SDS011;36247;51.952;6.146;2022-12-07T15:49:00;5.07;;;2.60;;
29908;SDS011;36247;51.952;6.146;2022-12-07T15:51:26;7.20;;;3.80;;
29908;SDS011;36247;51.952;6.146;2022-12-07T15:53:52;6.65;;;2.50;;
29908;SDS011;36247;51.952;6.146;2022-12-07T15:56:18;11.63;;;2.63;;
29908;SDS011;36247;51.952;6.146;2022-12-07T15:58:43;8.00;;;2.80;;
29908;SDS011;36247;51.952;6.146;2022-12-07T16:01:12;8.60;;;3.17;;
29908;SDS011;36247;51.952;6.146;2022-12-07T16:06:07;10.77;;;3.38;;
29908;SDS011;36247;51.952;6.146;2022-12-07T16:08:33;4.30;;;3.63;;
29908;SDS011;36247;51.952;6.146;2022-12-07T16:10:58;6.72;;;3.65;;
29908;SDS011;36247;51.952;6.146;2022-12-07T16:13:24;9.63;;;3.45;;
29908;SDS011;36247;51.952;6.146;2022-12-07T16:15:50;4.57;;;3.85;;
29908;SDS011;36247;51.952;6.146;2022-12-07T16:18:15;7.10;;;2.80;;
29908;SDS011;36247;51.952;6.146;2022-12-07T16:20:41;6.50;;;3.80;;
29908;SDS011;36247;51.952;6.146;2022-12-07T16:23:06;4.95;;;3.47;;
29908;SDS011;36247;51.952;6.146;2022-12-07T16:25:32;5.38;;;3.50;;
29908;SDS011;36247;51.952;6.146;2022-12-07T16:27:58;9.00;;;3.83;;
29908;SDS011;36247;51.952;6.146;2022-12-07T16:30:24;12.65;;;4.60;;
29908;SDS011;36247;51.952;6.146;2022-12-07T16:32:50;10.68;;;4.43;;
29908;SDS011;36247;51.952;6.146;2022-12-07T16:35:16;9.65;;;4.55;;
29908;SDS011;36247;51.952;6.146;2022-12-07T16:37:42;12.82;;;5.18;;
29908;SDS011;36247;51.952;6.146;2022-12-07T16:40:08;13.52;;;5.30;;
29908;SDS011;36247;51.952;6.146;2022-12-07T16:42:34;9.25;;;5.30;;
29908;SDS011;36247;51.952;6.146;2022-12-07T16:45:00;10.23;;;5.38;;
29908;SDS011;36247;51.952;6.146;2022-12-07T16:47:26;11.05;;;5.97;;
29908;SDS011;36247;51.952;6.146;2022-12-07T16:49:52;8.38;;;4.43;;
29908;SDS011;36247;51.952;6.146;2022-12-07T16:52:18;12.75;;;4.70;;